Oak Ridge, Louisiana
Current Conditions -  °F | °C
As of 9:55 AM on Sunday 21 Dec 2014 (Local Time) from KBQP Reporting Station
Clear Clear  
Wind Chill: 48°   Ceiling: Unl
Heat Index: 48°   Visibility: 10mi
Dew Point: 40°   Wind: 3mph
Humidity: 76%   Direction: 60°ENE
Pressure: 30.18"   Gusts: NA
Location:  32.62°N, 91.77°W
Report Text: KBQP 211555Z AUTO 06003KT 10SM CLR 09/05 A3018 RMK AO2 T00870046
Loading
Personal Weather Stations






























Interactive Weather Map New forecast layout! Learn more

10-Day Weather Forecast

Advertisements
Track Severe Weather on mobile